Hauptseite
METAR-TAF:

METAR-TAF

Flughäfen :

München, Deutschland

Flughafen München

Breite: 48-21N, Länge: 011-47E, Höhe: 453 m

Beobachtung

Neuester Wetterbericht von vor 39 Minuten, um 10:50 UTC
Wind 14 kt aus Ost
Temperatur 10°C
Luftfeuchtigkeit 57%
Luftdruck 1025 hPa
Sichtweite 10 km oder mehr
keine Wolken unter 1500 m und keine Kumulonimbus oder Gewitterwolken

METAR: EDDM 251050Z 09014KT CAVOK 10/02 Q1025 NOSIG

Zeit: 12:29 (11:29 UTC)

Prognose

Neuester Wetterbericht von vor 6 Stunden und 29 Minuten, um 05:00 UTC
Gültige Prognose vom 25 um 06 UTC bis 26 um 12 UTC
Wind 7 kt aus Ost/Nordost
Sichtweite 10 km oder mehr
Aufgelockert bewölkt in der Höhe von 2000 ft
Übergehend zu
vom 25 um 07 UTC bis 25 um 09 UTC
Wind 12 kt aus Ost
Übergehend zu
vom 25 um 16 UTC bis 25 um 18 UTC
Wind 7 kt aus Ost/Nordost

TAF: EDDM 250500Z 2506/2612 07007KT 9999 SCT020 BECMG 2507/2509 08012KT BECMG 2516/2518 07007KT

Wetterbeobachtungen und Prognosen von mehr als 4000 Flughäfen (METAR und TAF Bericht).

Die verfügbaren Stationen werden durch gelbe und rote Markierungen auf der Karte dargestellt.

Führen Sie die Maus auf sie, um den Namen der Station zu sehen.

Darauf klicken, um die Beobachtung von Wetterbeobachtungen und Prognosen zu sehen.

Um die Karte zu ändern : klicken Sie auf den grünen Tasten mit einem schwarzen Kreuz Zum Vergrößern, auf den grünen Button mit einem Gedankenstrich zu verkleinern, oder auf die grünen Pfeile für benachbarte Karten.


METAR-TAF: